Terminal Aerodrome Forecast
Issued by NWS Shreveport, LA

Home | Current Version | Previous Version | Text Only | Print | Product List | Glossary On
Versions: 1 2 3 4 5 6 7 8 9 10 11 12 13 14 15 16 17 18 19 20 21
078
FTUS44 KSHV 271612 AAA
TAFTYR
TAF AMD
KTYR 271612Z 2716/2812 VRB05KT P6SM -SHRA VCTS SCT035 OVC100CB
      TEMPO 2718/2721 16012G20KT 2SM TSRA BR BKN035 OVC080CB
     FM272200 17012G18KT P6SM VCTS BKN020 OVC040CB
     FM280500 18009KT P6SM BKN015 OVC040=

USA.gov is the U.S. government's official web portal to all federal, state and local government web resources and services.